Time;durP1;ratioP1;P1;durP2;ratioP2;P2;SDS_P1;SDS_P2;PMS_P1;PMS_P2;Temp;Humidity;BMP_temperature;BMP_pressure;BME280_temperature;BME280_humidity;BME280_pressure;Samples;Min_cycle;Max_cycle;Signal;HPM_P1;HPM_P2
2022/08/01 00:00:21;;;;;;;;;;;17.10;99.90;;;;;;5094047;28;19904;-75
2022/08/01 00:02:47;;;;;;;;;;;17.10;99.90;;;;;;5093708;28;19971;-75
2022/08/01 00:05:12;;;;;;;;;;;17.10;99.90;;;;;;5093522;28;19912;-74
2022/08/01 00:07:38;;;;;;;;;;;17.10;99.90;;;;;;5093672;28;19904;-75
2022/08/01 00:10:04;;;;;;;;;;;17.00;99.90;;;;;;5093891;28;19904;-75
2022/08/01 00:12:30;;;;;;;;;;;17.00;99.90;;;;;;5093646;28;20333;-75
2022/08/01 00:14:56;;;;;;;;;;;16.90;99.90;;;;;;5093575;28;19951;-74
2022/08/01 00:17:21;;;;;;;;;;;16.80;99.90;;;;;;5093597;28;19969;-75
2022/08/01 00:19:47;;;;;;;;;;;16.70;99.90;;;;;;5093562;28;20323;-75
2022/08/01 00:22:12;;;;;;;;;;;16.60;99.90;;;;;;5094127;28;20352;-75
2022/08/01 00:24:38;;;;;;;;;;;16.60;99.90;;;;;;5093559;28;20352;-75
2022/08/01 00:27:03;;;;;;;;;;;16.60;99.90;;;;;;5093397;28;19907;-75
2022/08/01 00:29:29;;;;;;;;;;;16.70;99.90;;;;;;5093485;28;19911;-75
2022/08/01 00:31:54;;;;;;;;;;;16.70;99.90;;;;;;5093361;28;19919;-75
2022/08/01 00:34:20;;;;;;;;;;;16.70;99.90;;;;;;5093369;28;19908;-75
2022/08/01 00:36:46;;;;;;;;;;;16.60;99.90;;;;;;5093298;28;19904;-75
2022/08/01 00:39:12;;;;;;;;;;;16.60;99.90;;;;;;5093656;28;19904;-75
2022/08/01 00:41:37;;;;;;;;;;;16.50;99.90;;;;;;5093361;28;19904;-75
2022/08/01 00:44:04;;;;;;;;;;;16.40;99.90;;;;;;5075443;28;20009;-75
2022/08/01 00:46:29;;;;;;;;;;;16.30;99.90;;;;;;5095892;28;19915;-74
2022/08/01 00:48:55;;;;;;;;;;;16.30;99.90;;;;;;5097275;28;19998;-75
2022/08/01 00:51:21;;;;;;;;;;;16.30;99.90;;;;;;5096964;28;20261;-75
2022/08/01 00:53:47;;;;;;;;;;;16.20;99.90;;;;;;5096849;28;20329;-75
2022/08/01 00:56:13;;;;;;;;;;;16.20;99.90;;;;;;5096987;28;19907;-75
2022/08/01 00:58:39;;;;;;;;;;;16.20;99.90;;;;;;5097042;28;19908;-75
2022/08/01 01:01:04;;;;;;;;;;;16.10;99.90;;;;;;5097013;28;20038;-75
2022/08/01 01:03:30;;;;;;;;;;;16.10;99.90;;;;;;5097039;28;19953;-75
2022/08/01 01:06:13;;;;;;;;;;;16.10;99.90;;;;;;5096575;28;20400;-75
2022/08/01 01:08:58;;;;;;;;;;;16.10;99.90;;;;;;5096968;28;19904;-75
2022/08/01 01:11:31;;;;;;;;;;;16.10;99.90;;;;;;5096611;28;19904;-75
2022/08/01 01:14:04;;;;;;;;;;;16.10;99.90;;;;;;5096498;28;20048;-75
2022/08/01 01:16:30;;;;;;;;;;;16.10;99.90;;;;;;5096326;28;19915;-75
2022/08/01 01:18:58;;;;;;;;;;;16.20;99.90;;;;;;5096440;28;19904;-75
2022/08/01 01:21:33;;;;;;;;;;;16.20;99.90;;;;;;5097226;28;20291;-75
2022/08/01 01:23:59;;;;;;;;;;;16.20;99.90;;;;;;5096333;28;19911;-76
2022/08/01 01:26:33;;;;;;;;;;;16.20;99.90;;;;;;5096245;28;19917;-75
2022/08/01 01:29:07;;;;;;;;;;;16.30;99.90;;;;;;5096239;28;19904;-74
2022/08/01 01:31:38;;;;;;;;;;;16.20;99.90;;;;;;5077909;28;20348;-75
2022/08/01 01:34:04;;;;;;;;;;;16.20;99.90;;;;;;5096395;28;19969;-76
2022/08/01 01:36:30;;;;;;;;;;;16.20;99.90;;;;;;5096079;28;19908;-75
2022/08/01 01:38:56;;;;;;;;;;;16.20;99.90;;;;;;5096057;28;19910;-76
2022/08/01 01:41:23;;;;;;;;;;;16.20;99.90;;;;;;5096019;28;19904;-76
2022/08/01 01:43:50;;;;;;;;;;;16.20;99.90;;;;;;5095962;28;20003;-76
2022/08/01 01:46:18;;;;;;;;;;;16.20;99.90;;;;;;5095935;28;19904;-75
2022/08/01 01:48:45;;;;;;;;;;;16.20;99.90;;;;;;5095892;28;20375;-76
2022/08/01 01:51:11;;;;;;;;;;;16.20;99.90;;;;;;5077748;28;19904;-75
2022/08/01 01:53:38;;;;;;;;;;;16.10;99.90;;;;;;5096042;28;19961;-76
2022/08/01 01:56:03;;;;;;;;;;;16.10;99.90;;;;;;5095685;28;19936;-75
2022/08/01 01:58:31;;;;;;;;;;;16.00;99.90;;;;;;5076650;28;19935;-76
2022/08/01 02:00:58;;;;;;;;;;;15.90;99.90;;;;;;5095614;28;19908;-76
2022/08/01 02:03:24;;;;;;;;;;;15.80;99.90;;;;;;5095598;28;19946;-76
2022/08/01 02:05:51;;;;;;;;;;;15.80;99.90;;;;;;5095292;28;20334;-76
2022/08/01 02:08:17;;;;;;;;;;;15.80;99.90;;;;;;5095761;28;19971;-76
2022/08/01 02:13:31;;;;;;;;;;;15.80;99.90;;;;;;5095415;28;19919;-76
2022/08/01 02:15:57;;;;;;;;;;;15.80;99.90;;;;;;5095244;28;19911;-76
2022/08/01 02:18:23;;;;;;;;;;;15.80;99.90;;;;;;5095537;28;19911;-75
2022/08/01 02:20:50;;;;;;;;;;;15.80;99.90;;;;;;5095229;28;19908;-75
2022/08/01 02:23:16;;;;;;;;;;;15.90;99.90;;;;;;5095214;28;19911;-75
2022/08/01 02:25:47;;;;;;;;;;;15.80;99.90;;;;;;5095119;28;19908;-76
2022/08/01 02:28:15;;;;;;;;;;;15.80;99.90;;;;;;5095520;28;19944;-76
2022/08/01 02:30:43;;;;;;;;;;;15.80;99.90;;;;;;5095085;28;19911;-76
2022/08/01 02:33:14;;;;;;;;;;;15.70;99.90;;;;;;5095090;28;19919;-76
2022/08/01 02:35:41;;;;;;;;;;;15.70;99.90;;;;;;5094894;28;19994;-76
2022/08/01 02:38:09;;;;;;;;;;;15.60;99.90;;;;;;5094839;28;19994;-76
2022/08/01 02:40:37;;;;;;;;;;;15.50;99.90;;;;;;5095124;28;20016;-76
2022/08/01 02:43:03;;;;;;;;;;;15.40;99.90;;;;;;5094787;28;19954;-76
2022/08/01 02:45:30;;;;;;;;;;;15.30;99.90;;;;;;5094700;28;20424;-76
2022/08/01 02:47:57;;;;;;;;;;;15.30;99.90;;;;;;5076597;28;19904;-76
2022/08/01 02:50:23;;;;;;;;;;;15.30;99.90;;;;;;5094693;28;19953;-77
2022/08/01 02:52:51;;;;;;;;;;;15.30;99.90;;;;;;5094586;28;19904;-76
2022/08/01 02:55:17;;;;;;;;;;;15.30;99.90;;;;;;5095398;28;20264;-76
2022/08/01 02:57:43;;;;;;;;;;;15.30;99.90;;;;;;5095150;28;19911;-76
2022/08/01 03:00:09;;;;;;;;;;;15.40;99.90;;;;;;5094497;28;20436;-76
2022/08/01 03:02:35;;;;;;;;;;;15.30;99.90;;;;;;5094478;28;19904;-76
2022/08/01 03:05:02;;;;;;;;;;;15.40;99.90;;;;;;5094210;28;19972;-76
2022/08/01 03:07:29;;;;;;;;;;;15.40;99.90;;;;;;5094938;28;19903;-76
2022/08/01 03:09:56;;;;;;;;;;;15.30;99.90;;;;;;5094303;28;19907;-76
2022/08/01 03:12:24;;;;;;;;;;;15.30;99.90;;;;;;5094323;28;19908;-76
2022/08/01 03:14:51;;;;;;;;;;;15.20;99.90;;;;;;5094183;28;20006;-75
2022/08/01 03:17:18;;;;;;;;;;;15.20;99.90;;;;;;5094949;28;19999;-76
2022/08/01 03:19:45;;;;;;;;;;;15.20;99.90;;;;;;5094544;28;19904;-76
2022/08/01 03:22:12;;;;;;;;;;;15.20;99.90;;;;;;5094139;28;19904;-76
2022/08/01 03:24:39;;;;;;;;;;;15.10;99.90;;;;;;5094429;28;20029;-75
2022/08/01 03:27:05;;;;;;;;;;;15.10;99.90;;;;;;5075800;28;19904;-76
2022/08/01 03:29:32;;;;;;;;;;;15.00;99.90;;;;;;5094118;28;19904;-75
2022/08/01 03:31:59;;;;;;;;;;;15.00;99.90;;;;;;5075985;28;19908;-75
2022/08/01 03:34:27;;;;;;;;;;;15.10;99.90;;;;;;5093819;28;19965;-75
2022/08/01 03:37:03;;;;;;;;;;;15.10;99.90;;;;;;5094187;28;19904;-75
2022/08/01 03:39:31;;;;;;;;;;;15.20;99.90;;;;;;5094230;28;19939;-75
2022/08/01 03:41:59;;;;;;;;;;;15.20;99.90;;;;;;5094242;28;19910;-75
2022/08/01 03:44:27;;;;;;;;;;;15.20;99.90;;;;;;5075776;28;19904;-75
2022/08/01 03:47:04;;;;;;;;;;;15.20;99.90;;;;;;5093894;28;19904;-75
2022/08/01 03:49:30;;;;;;;;;;;15.20;99.90;;;;;;5094181;28;19979;-74
2022/08/01 03:51:56;;;;;;;;;;;15.20;99.90;;;;;;5093853;28;20386;-75
2022/08/01 03:54:24;;;;;;;;;;;15.20;99.90;;;;;;5094085;28;19962;-75
2022/08/01 03:56:51;;;;;;;;;;;15.20;99.90;;;;;;5094054;28;19908;-75
2022/08/01 03:59:17;;;;;;;;;;;15.20;99.90;;;;;;5093809;28;19926;-75
2022/08/01 04:01:43;;;;;;;;;;;15.20;99.90;;;;;;5093755;28;19908;-75
2022/08/01 04:04:09;;;;;;;;;;;15.20;99.90;;;;;;5093906;28;19935;-75
2022/08/01 04:06:37;;;;;;;;;;;15.20;99.90;;;;;;5093689;28;19915;-75
2022/08/01 04:09:03;;;;;;;;;;;15.20;99.90;;;;;;5093748;28;19904;-75
2022/08/01 04:11:28;;;;;;;;;;;15.10;99.90;;;;;;5093662;28;19905;-75
2022/08/01 04:13:54;;;;;;;;;;;15.10;99.90;;;;;;5093582;28;20364;-75
2022/08/01 04:16:20;;;;;;;;;;;15.10;99.90;;;;;;5093605;28;20287;-76
2022/08/01 04:18:46;;;;;;;;;;;15.10;99.90;;;;;;5093603;28;19908;-76
2022/08/01 04:21:12;;;;;;;;;;;15.10;99.90;;;;;;5096202;28;19904;-75
2022/08/01 04:23:38;;;;;;;;;;;15.20;99.90;;;;;;5079537;28;19910;-75
2022/08/01 04:26:04;;;;;;;;;;;15.20;99.90;;;;;;5097510;28;19904;-76
2022/08/01 04:28:30;;;;;;;;;;;15.20;99.90;;;;;;5097432;28;19915;-76
2022/08/01 04:30:57;;;;;;;;;;;15.20;99.90;;;;;;5097393;28;19947;-76
2022/08/01 04:33:23;;;;;;;;;;;15.20;99.90;;;;;;5097545;28;19907;-76
2022/08/01 04:35:49;;;;;;;;;;;15.30;99.90;;;;;;5097282;28;19904;-75
2022/08/01 04:38:21;;;;;;;;;;;15.30;99.90;;;;;;5097249;28;19904;-75
2022/08/01 04:40:48;;;;;;;;;;;15.30;99.90;;;;;;5097243;28;19994;-75
2022/08/01 04:43:14;;;;;;;;;;;15.30;99.90;;;;;;5097426;28;20045;-75
2022/08/01 04:45:40;;;;;;;;;;;15.30;99.90;;;;;;5097023;28;19940;-75
2022/08/01 04:48:08;;;;;;;;;;;15.30;99.90;;;;;;5097412;28;20304;-75
2022/08/01 04:50:34;;;;;;;;;;;15.30;99.90;;;;;;5096989;28;19911;-75
2022/08/01 04:53:02;;;;;;;;;;;15.30;99.90;;;;;;5096907;28;20276;-75
2022/08/01 04:55:28;;;;;;;;;;;15.30;99.90;;;;;;5096984;28;19961;-75
2022/08/01 04:57:53;;;;;;;;;;;15.30;99.90;;;;;;5096884;28;20318;-75
2022/08/01 05:00:19;;;;;;;;;;;15.20;99.90;;;;;;5078692;28;19908;-76
2022/08/01 05:02:46;;;;;;;;;;;15.20;99.90;;;;;;5079519;28;20260;-75
2022/08/01 05:05:11;;;;;;;;;;;15.30;99.90;;;;;;5078259;28;19911;-75
2022/08/01 05:07:37;;;;;;;;;;;15.20;99.90;;;;;;5096664;28;20071;-76
2022/08/01 05:10:06;;;;;;;;;;;15.30;99.90;;;;;;5096979;28;19976;-76
2022/08/01 05:12:31;;;;;;;;;;;15.30;99.90;;;;;;5096885;28;20272;-75
2022/08/01 05:14:57;;;;;;;;;;;15.30;99.90;;;;;;5097023;28;19908;-75
2022/08/01 05:17:23;;;;;;;;;;;15.40;99.90;;;;;;5096461;28;19904;-76
2022/08/01 05:19:49;;;;;;;;;;;15.40;99.90;;;;;;5096744;28;19960;-75
2022/08/01 05:22:14;;;;;;;;;;;15.50;99.90;;;;;;5096358;28;19943;-75
2022/08/01 05:24:40;;;;;;;;;;;15.50;99.90;;;;;;5096303;28;19910;-75
2022/08/01 05:27:07;;;;;;;;;;;15.50;99.90;;;;;;5096196;28;19911;-75
2022/08/01 05:29:33;;;;;;;;;;;15.50;99.90;;;;;;5096554;28;19904;-75
2022/08/01 05:31:59;;;;;;;;;;;15.50;99.90;;;;;;5094917;28;19957;-75
2022/08/01 05:34:24;;;;;;;;;;;15.50;99.90;;;;;;5096398;28;19915;-75
2022/08/01 05:36:50;;;;;;;;;;;15.60;99.90;;;;;;5095958;28;20395;-75
2022/08/01 05:39:15;;;;;;;;;;;15.60;99.90;;;;;;5078607;28;19904;-75
2022/08/01 05:41:41;;;;;;;;;;;15.60;99.90;;;;;;5096630;28;20351;-75
2022/08/01 05:44:06;;;;;;;;;;;15.60;99.90;;;;;;5096309;28;19986;-75
2022/08/01 05:46:33;;;;;;;;;;;15.70;99.90;;;;;;5095924;28;19908;-75
2022/08/01 05:48:59;;;;;;;;;;;15.70;99.90;;;;;;5095916;28;20326;-75
2022/08/01 05:51:25;;;;;;;;;;;15.80;99.90;;;;;;5095848;28;19904;-75
2022/08/01 05:53:51;;;;;;;;;;;15.80;99.90;;;;;;5095739;28;19915;-75
2022/08/01 05:56:17;;;;;;;;;;;15.80;99.90;;;;;;5095985;28;19904;-75
2022/08/01 05:58:43;;;;;;;;;;;15.80;99.90;;;;;;5096008;28;20015;-75
2022/08/01 06:01:08;;;;;;;;;;;15.80;99.90;;;;;;5095670;28;19932;-75
2022/08/01 06:03:34;;;;;;;;;;;15.90;99.90;;;;;;5077422;28;19911;-75
2022/08/01 06:06:00;;;;;;;;;;;15.90;99.90;;;;;;5095486;28;20051;-75
2022/08/01 06:08:25;;;;;;;;;;;15.80;99.90;;;;;;5095749;28;20394;-75
2022/08/01 06:10:51;;;;;;;;;;;15.80;99.90;;;;;;5095747;28;19904;-75
2022/08/01 06:13:16;;;;;;;;;;;15.80;99.90;;;;;;5095880;28;19908;-75
2022/08/01 06:15:42;;;;;;;;;;;15.90;99.90;;;;;;5095584;28;19911;-75
2022/08/01 06:18:07;;;;;;;;;;;15.90;99.90;;;;;;5095312;28;19904;-75
2022/08/01 06:20:33;;;;;;;;;;;15.90;99.90;;;;;;5095584;28;19932;-75
2022/08/01 06:22:58;;;;;;;;;;;16.00;99.90;;;;;;5077031;28;19904;-75
2022/08/01 06:25:24;;;;;;;;;;;16.10;99.90;;;;;;5077033;28;20283;-75
2022/08/01 06:27:49;;;;;;;;;;;16.10;99.90;;;;;;5095164;28;19915;-75
2022/08/01 06:30:15;;;;;;;;;;;16.20;99.90;;;;;;5095344;28;20376;-75
2022/08/01 06:32:41;;;;;;;;;;;16.30;99.90;;;;;;5095062;28;19904;-75
2022/08/01 06:35:06;;;;;;;;;;;16.40;99.90;;;;;;5094904;28;20429;-75
2022/08/01 06:37:32;;;;;;;;;;;16.50;99.90;;;;;;5094891;28;20268;-75
2022/08/01 06:40:04;;;;;;;;;;;16.60;99.90;;;;;;5094888;28;19953;-75
2022/08/01 06:42:35;;;;;;;;;;;16.70;99.90;;;;;;5095012;28;19915;-75
2022/08/01 06:45:04;;;;;;;;;;;16.80;99.90;;;;;;5094825;28;19904;-75
2022/08/01 06:47:29;;;;;;;;;;;16.90;99.90;;;;;;5094723;28;19907;-75
2022/08/01 06:49:55;;;;;;;;;;;17.00;99.90;;;;;;5094716;28;20303;-75
2022/08/01 06:52:20;;;;;;;;;;;17.00;99.90;;;;;;5094968;28;19904;-75
2022/08/01 06:54:46;;;;;;;;;;;17.20;99.90;;;;;;5094471;28;19908;-75
2022/08/01 06:57:12;;;;;;;;;;;17.30;99.90;;;;;;5094575;28;19918;-75
2022/08/01 06:59:37;;;;;;;;;;;17.30;99.90;;;;;;5094583;28;20379;-75
2022/08/01 07:02:03;;;;;;;;;;;17.40;99.90;;;;;;5094801;28;19943;-75
2022/08/01 07:04:28;;;;;;;;;;;17.50;99.90;;;;;;5076233;28;20364;-75
2022/08/01 07:06:54;;;;;;;;;;;17.60;99.90;;;;;;5076322;28;20284;-74
2022/08/01 07:09:19;;;;;;;;;;;17.80;99.90;;;;;;5076536;28;19908;-75
2022/08/01 07:11:45;;;;;;;;;;;17.90;99.90;;;;;;5094422;28;19965;-74
2022/08/01 07:14:10;;;;;;;;;;;18.00;99.90;;;;;;5094292;28;19907;-74
2022/08/01 07:16:36;;;;;;;;;;;18.10;99.90;;;;;;5094216;28;19904;-74
2022/08/01 07:19:02;;;;;;;;;;;18.20;99.90;;;;;;5076146;28;19911;-74
2022/08/01 07:21:27;;;;;;;;;;;18.30;99.90;;;;;;5094631;28;19904;-74
2022/08/01 07:23:53;;;;;;;;;;;18.40;99.90;;;;;;5094271;28;19907;-74
2022/08/01 07:26:18;;;;;;;;;;;18.50;99.90;;;;;;5093714;28;19911;-74
2022/08/01 07:28:44;;;;;;;;;;;18.60;99.90;;;;;;5094136;28;19940;-74
2022/08/01 07:31:10;;;;;;;;;;;18.70;99.90;;;;;;5094351;28;19970;-74
2022/08/01 07:33:35;;;;;;;;;;;18.80;99.90;;;;;;5094018;28;19912;-74
2022/08/01 07:36:01;;;;;;;;;;;19.00;99.90;;;;;;5093959;28;19957;-74
2022/08/01 07:38:26;;;;;;;;;;;19.10;99.90;;;;;;5094023;28;19990;-74
2022/08/01 07:40:52;;;;;;;;;;;19.20;99.90;;;;;;5093773;28;19904;-74
2022/08/01 07:43:17;;;;;;;;;;;19.40;99.90;;;;;;5093967;28;19968;-74
2022/08/01 07:45:43;;;;;;;;;;;19.50;99.90;;;;;;5093866;28;19947;-74
2022/08/01 07:48:08;;;;;;;;;;;19.70;99.90;;;;;;5093927;28;19904;-74
2022/08/01 07:50:34;;;;;;;;;;;19.90;99.90;;;;;;5075784;28;19904;-74
2022/08/01 07:53:00;;;;;;;;;;;20.00;99.90;;;;;;5093839;28;19908;-74
2022/08/01 07:55:26;;;;;;;;;;;20.20;99.90;;;;;;5095217;28;19904;-74
2022/08/01 07:57:51;;;;;;;;;;;20.30;99.90;;;;;;5098115;28;20256;-72
2022/08/01 08:00:17;;;;;;;;;;;20.50;99.90;;;;;;5079832;28;19904;-72
2022/08/01 08:02:44;;;;;;;;;;;20.60;99.90;;;;;;5098212;28;19904;-72
2022/08/01 08:05:10;;;;;;;;;;;20.90;99.90;;;;;;5097672;28;19912;-71
2022/08/01 08:07:36;;;;;;;;;;;21.00;99.90;;;;;;5097853;28;19908;-72
2022/08/01 08:10:02;;;;;;;;;;;21.20;99.90;;;;;;5079651;28;19904;-72
2022/08/01 08:12:27;;;;;;;;;;;21.40;99.90;;;;;;5079638;28;19904;-72
2022/08/01 08:14:53;;;;;;;;;;;21.60;99.90;;;;;;5097742;28;19908;-71
2022/08/01 08:17:18;;;;;;;;;;;21.70;99.90;;;;;;5097670;28;19904;-72
2022/08/01 08:19:44;;;;;;;;;;;21.90;99.90;;;;;;5097556;28;19904;-72
2022/08/01 08:22:10;;;;;;;;;;;22.10;99.90;;;;;;5097558;28;19957;-71
2022/08/01 08:24:36;;;;;;;;;;;22.20;99.90;;;;;;5097777;28;20276;-71
2022/08/01 08:27:03;;;;;;;;;;;22.20;99.90;;;;;;5097372;28;20430;-71
2022/08/01 08:29:30;;;;;;;;;;;22.40;99.90;;;;;;5097423;28;19904;-71
2022/08/01 08:31:55;;;;;;;;;;;22.50;99.90;;;;;;5097648;28;19910;-71
2022/08/01 08:34:21;;;;;;;;;;;22.70;99.90;;;;;;5097467;28;19998;-71
2022/08/01 08:36:47;;;;;;;;;;;22.80;99.90;;;;;;5097282;28;20330;-71
2022/08/01 08:39:13;;;;;;;;;;;23.00;99.90;;;;;;5097165;28;20280;-71
2022/08/01 08:41:38;;;;;;;;;;;23.20;99.90;;;;;;5097283;28;19904;-71
2022/08/01 08:44:05;;;;;;;;;;;23.40;99.90;;;;;;5079067;28;19904;-71
2022/08/01 08:46:32;;;;;;;;;;;23.50;99.90;;;;;;5097064;28;19908;-71
2022/08/01 08:48:58;;;;;;;;;;;23.70;99.90;;;;;;5096958;28;19904;-72
2022/08/01 08:51:25;;;;;;;;;;;23.90;99.90;;;;;;5097193;28;19905;-72
2022/08/01 08:53:54;;;;;;;;;;;24.00;99.90;;;;;;5096727;28;19998;-71
2022/08/01 08:56:20;;;;;;;;;;;24.10;99.60;;;;;;5078533;28;19990;-71
2022/08/01 08:58:46;;;;;;;;;;;24.20;99.90;;;;;;5096819;28;20008;-71
2022/08/01 09:01:12;;;;;;;;;;;24.20;98.90;;;;;;5096820;28;19917;-71
2022/08/01 09:03:38;;;;;;;;;;;24.30;97.70;;;;;;5096727;28;19904;-71
2022/08/01 09:06:04;;;;;;;;;;;24.40;96.10;;;;;;5095673;28;19995;-71
2022/08/01 09:08:29;;;;;;;;;;;24.50;96.40;;;;;;5096631;28;20003;-71
2022/08/01 09:10:55;;;;;;;;;;;24.50;95.10;;;;;;5096636;28;19904;-71
2022/08/01 09:13:20;;;;;;;;;;;24.60;94.30;;;;;;5096649;28;19908;-71
2022/08/01 09:15:50;;;;;;;;;;;24.70;93.60;;;;;;5094822;28;19915;-69
2022/08/01 09:18:26;;;;;;;;;;;24.80;94.60;;;;;;5096106;28;19999;-71
2022/08/01 09:20:51;;;;;;;;;;;24.90;92.90;;;;;;5096252;28;19904;-71
2022/08/01 09:23:39;;;;;;;;;;;25.00;91.80;;;;;;5094951;28;19911;-71
2022/08/01 09:26:05;;;;;;;;;;;25.20;91.60;;;;;;5096052;28;19928;-71
2022/08/01 09:28:31;;;;;;;;;;;25.30;91.10;;;;;;5078017;28;19911;-71
2022/08/01 09:30:57;;;;;;;;;;;25.50;91.60;;;;;;5096228;28;20271;-71
2022/08/01 09:33:23;;;;;;;;;;;25.70;89.80;;;;;;5095998;28;20364;-71
2022/08/01 09:35:55;;;;;;;;;;;25.80;89.70;;;;;;5096006;28;19904;-71
2022/08/01 09:38:22;;;;;;;;;;;25.80;88.50;;;;;;5095814;28;19972;-71
2022/08/01 09:40:55;;;;;;;;;;;25.80;89.60;;;;;;5095974;28;19904;-71
2022/08/01 09:43:21;;;;;;;;;;;25.90;91.00;;;;;;5077685;28;19915;-72
2022/08/01 09:45:46;;;;;;;;;;;26.00;88.90;;;;;;5095692;28;19986;-71
2022/08/01 09:48:12;;;;;;;;;;;26.10;87.10;;;;;;5094493;28;19950;-72
2022/08/01 09:50:41;;;;;;;;;;;26.10;87.80;;;;;;5095979;28;19904;-71
2022/08/01 09:53:08;;;;;;;;;;;26.10;82.80;;;;;;5095595;28;19950;-71
2022/08/01 09:55:33;;;;;;;;;;;26.10;85.60;;;;;;5077356;28;19904;-72
2022/08/01 09:58:00;;;;;;;;;;;26.20;86.10;;;;;;5094740;28;19951;-70
2022/08/01 10:00:26;;;;;;;;;;;26.40;82.90;;;;;;5095495;28;19952;-71
2022/08/01 10:02:52;;;;;;;;;;;26.50;82.30;;;;;;5095301;28;19991;-71
2022/08/01 10:05:29;;;;;;;;;;;26.60;83.10;;;;;;5077245;28;20011;-70
2022/08/01 10:07:56;;;;;;;;;;;26.80;82.40;;;;;;5095636;28;20269;-71
2022/08/01 10:10:21;;;;;;;;;;;26.70;82.00;;;;;;5095370;28;19908;-72
2022/08/01 10:12:47;;;;;;;;;;;26.80;79.30;;;;;;5095377;28;20381;-71
2022/08/01 10:15:16;;;;;;;;;;;26.80;80.30;;;;;;5095368;28;20419;-71
2022/08/01 10:17:46;;;;;;;;;;;27.00;79.10;;;;;;5094505;28;19964;-71
2022/08/01 10:20:11;;;;;;;;;;;27.10;79.90;;;;;;5076954;28;19967;-71
2022/08/01 10:22:37;;;;;;;;;;;27.00;77.50;;;;;;5095168;28;19992;-71
2022/08/01 10:25:03;;;;;;;;;;;27.10;77.10;;;;;;5095088;28;19926;-71
2022/08/01 10:27:30;;;;;;;;;;;27.10;77.70;;;;;;5095097;28;19910;-72
2022/08/01 10:30:03;;;;;;;;;;;27.20;76.90;;;;;;5095107;28;19911;-71
2022/08/01 10:32:32;;;;;;;;;;;27.30;78.20;;;;;;5094914;28;19986;-72
2022/08/01 10:34:58;;;;;;;;;;;27.50;79.30;;;;;;5094118;28;19999;-72
2022/08/01 10:37:25;;;;;;;;;;;27.70;75.60;;;;;;5093305;28;19951;-72
2022/08/01 10:39:53;;;;;;;;;;;27.80;75.90;;;;;;5076613;28;19930;-71
2022/08/01 10:42:19;;;;;;;;;;;27.80;75.20;;;;;;5094851;28;19904;-71
2022/08/01 10:44:47;;;;;;;;;;;27.80;75.80;;;;;;5093340;28;20374;-72
2022/08/01 10:47:17;;;;;;;;;;;27.80;75.00;;;;;;5094585;28;19904;-72
2022/08/01 10:49:47;;;;;;;;;;;27.90;72.80;;;;;;5076564;28;19911;-72
2022/08/01 10:52:19;;;;;;;;;;;28.00;75.60;;;;;;5094511;28;20348;-71
2022/08/01 10:54:45;;;;;;;;;;;28.00;74.60;;;;;;5094316;28;19914;-73
2022/08/01 10:57:11;;;;;;;;;;;28.00;72.90;;;;;;5094588;28;20364;-72
2022/08/01 10:59:57;;;;;;;;;;;28.10;73.00;;;;;;5094675;28;19957;-72
2022/08/01 11:02:26;;;;;;;;;;;28.10;70.80;;;;;;5093743;28;19911;-72
2022/08/01 11:05:01;;;;;;;;;;;28.10;71.90;;;;;;5094211;28;20003;-72
2022/08/01 11:07:43;;;;;;;;;;;28.20;70.70;;;;;;5093804;28;19947;-72
2022/08/01 11:10:15;;;;;;;;;;;28.30;69.20;;;;;;5074267;28;20020;-72
2022/08/01 11:12:41;;;;;;;;;;;28.40;73.30;;;;;;5094552;28;19908;-71
2022/08/01 11:15:09;;;;;;;;;;;28.50;71.30;;;;;;5094471;28;19919;-73
2022/08/01 11:17:35;;;;;;;;;;;28.60;70.90;;;;;;5076188;28;20006;-70
2022/08/01 11:20:05;;;;;;;;;;;28.60;69.00;;;;;;5094552;28;19911;-72
2022/08/01 11:22:30;;;;;;;;;;;28.60;69.90;;;;;;5094134;28;19908;-72
2022/08/01 11:24:56;;;;;;;;;;;28.60;66.30;;;;;;5075980;28;19904;-71
2022/08/01 11:27:23;;;;;;;;;;;28.50;71.00;;;;;;5094429;28;19911;-71
2022/08/01 11:30:08;;;;;;;;;;;28.40;72.20;;;;;;5094455;28;19910;-72
2022/08/01 11:32:33;;;;;;;;;;;28.40;71.50;;;;;;5094718;28;19908;-71
2022/08/01 11:34:59;;;;;;;;;;;28.40;71.20;;;;;;5094194;28;19908;-73
2022/08/01 11:37:28;;;;;;;;;;;28.40;71.30;;;;;;5094589;28;20336;-71
2022/08/01 11:40:12;;;;;;;;;;;28.50;71.80;;;;;;5094306;28;19904;-71
2022/08/01 11:42:38;;;;;;;;;;;28.50;71.10;;;;;;5093850;28;19947;-71
2022/08/01 11:45:04;;;;;;;;;;;28.60;71.40;;;;;;5093915;28;19974;-71
2022/08/01 11:47:45;;;;;;;;;;;28.50;69.60;;;;;;5093896;28;20052;-72
2022/08/01 11:50:29;;;;;;;;;;;28.50;69.90;;;;;;5075709;28;19904;-71
2022/08/01 11:53:05;;;;;;;;;;;28.60;69.90;;;;;;5094348;28;19908;-72
2022/08/01 11:55:31;;;;;;;;;;;28.60;67.80;;;;;;5075594;28;19908;-71
2022/08/01 11:58:01;;;;;;;;;;;28.60;67.70;;;;;;5094123;28;20012;-71
2022/08/01 12:00:27;;;;;;;;;;;28.50;68.90;;;;;;5093733;28;19904;-72
2022/08/01 12:02:58;;;;;;;;;;;28.50;66.90;;;;;;5093789;28;19911;-70
2022/08/01 12:05:24;;;;;;;;;;;28.50;66.80;;;;;;5093601;28;20376;-71
2022/08/01 12:07:50;;;;;;;;;;;28.60;65.80;;;;;;5094587;28;19915;-72
2022/08/01 12:10:17;;;;;;;;;;;28.70;66.20;;;;;;5093678;28;19911;-72
2022/08/01 12:12:46;;;;;;;;;;;28.70;68.00;;;;;;5093953;28;19904;-72
2022/08/01 12:15:12;;;;;;;;;;;28.70;67.00;;;;;;5093562;28;20352;-71
2022/08/01 12:17:40;;;;;;;;;;;28.70;66.40;;;;;;5093634;28;19910;-70
2022/08/01 12:20:07;;;;;;;;;;;28.50;64.30;;;;;;5075649;28;20272;-72
2022/08/01 12:22:32;;;;;;;;;;;28.50;67.60;;;;;;5093513;28;19999;-70
2022/08/01 12:25:05;;;;;;;;;;;28.60;65.80;;;;;;5093744;28;19943;-72
2022/08/01 12:27:30;;;;;;;;;;;28.80;65.20;;;;;;5093720;28;19908;-71
2022/08/01 12:29:58;;;;;;;;;;;28.90;65.60;;;;;;5075402;28;19904;-71
2022/08/01 12:32:30;;;;;;;;;;;29.00;64.70;;;;;;5093476;28;20325;-72
2022/08/01 12:34:57;;;;;;;;;;;29.20;63.80;;;;;;5093299;28;19912;-71
2022/08/01 12:37:23;;;;;;;;;;;29.30;65.90;;;;;;5093993;28;19904;-72
2022/08/01 12:39:49;;;;;;;;;;;29.20;60.50;;;;;;5075278;28;19904;-71
2022/08/01 12:42:14;;;;;;;;;;;29.00;63.00;;;;;;5077690;28;20379;-72
2022/08/01 12:44:41;;;;;;;;;;;28.70;63.20;;;;;;5079285;28;19908;-70
2022/08/01 12:47:07;;;;;;;;;;;28.40;63.20;;;;;;5078906;28;19951;-72
2022/08/01 12:49:36;;;;;;;;;;;28.30;64.50;;;;;;5078868;28;20002;-72
2022/08/01 12:52:03;;;;;;;;;;;28.40;65.60;;;;;;5097231;28;19904;-71
2022/08/01 12:54:29;;;;;;;;;;;28.50;64.80;;;;;;5096824;28;19998;-72
2022/08/01 12:56:54;;;;;;;;;;;28.50;64.30;;;;;;5097101;28;19951;-71
2022/08/01 12:59:25;;;;;;;;;;;28.60;64.80;;;;;;5078584;28;19908;-72
2022/08/01 13:01:54;;;;;;;;;;;28.60;62.00;;;;;;5078448;28;19908;-72
2022/08/01 13:04:20;;;;;;;;;;;28.30;61.80;;;;;;5078478;28;19908;-72
2022/08/01 13:06:47;;;;;;;;;;;28.00;61.00;;;;;;5097037;28;19908;-72
2022/08/01 13:09:13;;;;;;;;;;;27.90;63.00;;;;;;5096682;28;20352;-73
2022/08/01 13:11:43;;;;;;;;;;;27.80;60.70;;;;;;5096702;28;19969;-71
2022/08/01 13:14:08;;;;;;;;;;;27.60;61.60;;;;;;5096791;28;19956;-70
2022/08/01 13:16:45;;;;;;;;;;;27.50;64.70;;;;;;5096457;28;19987;-71
2022/08/01 13:19:10;;;;;;;;;;;27.60;63.40;;;;;;5096815;28;20372;-69
2022/08/01 13:21:36;;;;;;;;;;;27.60;62.80;;;;;;5097045;28;19994;-73
2022/08/01 13:24:09;;;;;;;;;;;27.50;63.10;;;;;;5096761;28;20364;-71
2022/08/01 13:26:37;;;;;;;;;;;27.40;62.90;;;;;;5096319;28;20326;-72
2022/08/01 13:29:07;;;;;;;;;;;27.30;63.30;;;;;;5078464;28;20348;-72
2022/08/01 13:31:33;;;;;;;;;;;27.30;62.50;;;;;;5078152;28;19966;-71
2022/08/01 13:33:59;;;;;;;;;;;27.30;61.70;;;;;;5079097;28;20271;-71
2022/08/01 13:36:26;;;;;;;;;;;27.30;63.10;;;;;;5078347;28;19909;-71
2022/08/01 13:41:36;;;;;;;;;;;27.30;60.80;;;;;;5096103;28;19957;-71
2022/08/01 13:44:02;;;;;;;;;;;27.30;64.50;;;;;;5096103;28;19903;-72
2022/08/01 13:46:28;;;;;;;;;;;27.40;65.90;;;;;;5096197;28;19947;-71
2022/08/01 13:48:53;;;;;;;;;;;27.40;61.00;;;;;;5095856;28;19904;-71
2022/08/01 13:51:19;;;;;;;;;;;27.40;61.80;;;;;;5095808;28;19904;-71
2022/08/01 13:53:44;;;;;;;;;;;27.60;59.80;;;;;;5094570;28;19915;-71
2022/08/01 13:56:10;;;;;;;;;;;27.80;60.00;;;;;;5077903;28;19930;-72
2022/08/01 13:58:36;;;;;;;;;;;27.60;61.00;;;;;;5095791;28;20003;-72
2022/08/01 14:01:02;;;;;;;;;;;27.30;60.30;;;;;;5077545;28;19904;-70
2022/08/01 14:03:28;;;;;;;;;;;27.10;63.00;;;;;;5095622;28;19904;-71
2022/08/01 14:05:53;;;;;;;;;;;27.00;61.20;;;;;;5095334;28;19912;-70
2022/08/01 14:08:19;;;;;;;;;;;26.90;60.10;;;;;;5095441;28;19908;-72
2022/08/01 14:10:44;;;;;;;;;;;26.90;62.30;;;;;;5078404;28;19963;-72
2022/08/01 14:13:10;;;;;;;;;;;27.00;60.20;;;;;;5095201;28;20414;-71
2022/08/01 14:15:37;;;;;;;;;;;27.10;61.70;;;;;;5095103;28;20269;-71
2022/08/01 14:18:02;;;;;;;;;;;27.00;60.20;;;;;;5095328;28;19957;-72
2022/08/01 14:20:28;;;;;;;;;;;27.00;62.10;;;;;;5095461;28;20275;-71